Time;durP1;ratioP1;P1;durP2;ratioP2;P2;SDS_P1;SDS_P2;PMS_P1;PMS_P2;Temp;Humidity;BMP_temperature;BMP_pressure;BME280_temperature;BME280_humidity;BME280_pressure;Samples;Min_cycle;Max_cycle;Signal;HPM_P1;HPM_P2
2021/03/05 00:01:19;;;;;;;24.43;10.40;;;;;;;4.92;58.62;99721.71;1693676;84;21072;-60
2021/03/05 00:03:47;;;;;;;26.87;10.03;;;;;;;4.91;58.41;99721.38;1693652;84;21093;-60
2021/03/05 00:06:14;;;;;;;21.85;9.80;;;;;;;4.90;58.34;99722.40;1687982;84;21360;-61
2021/03/05 00:08:41;;;;;;;22.55;10.23;;;;;;;4.88;58.38;99731.23;1683718;85;21140;-60
2021/03/05 00:11:09;;;;;;;24.63;10.28;;;;;;;4.86;58.52;99727.34;1683735;85;21336;-61
2021/03/05 00:13:36;;;;;;;25.60;10.48;;;;;;;4.84;58.49;99734.81;1683738;84;21355;-60
2021/03/05 00:16:05;;;;;;;22.85;10.30;;;;;;;4.75;58.19;99728.58;1683712;84;21077;-60
2021/03/05 00:18:32;;;;;;;24.57;10.18;;;;;;;4.69;58.45;99732.52;1683815;85;21254;-61
2021/03/05 00:20:59;;;;;;;21.55;9.33;;;;;;;4.65;58.73;99729.30;1683709;85;21406;-60
2021/03/05 00:23:27;;;;;;;19.15;8.45;;;;;;;4.68;58.66;99732.17;1683828;85;21331;-59
2021/03/05 00:25:55;;;;;;;21.23;8.55;;;;;;;4.68;58.31;99722.17;1683706;85;21819;-60
2021/03/05 00:28:22;;;;;;;21.52;8.48;;;;;;;4.68;58.43;99724.03;1683873;85;21478;-61
2021/03/05 00:30:51;;;;;;;22.00;8.15;;;;;;;4.69;58.45;99727.93;1683407;85;21176;-61
2021/03/05 00:33:19;;;;;;;16.55;7.67;;;;;;;4.71;58.45;99738.61;1683804;83;21037;-61
2021/03/05 00:35:49;;;;;;;18.70;8.08;;;;;;;4.73;58.44;99727.91;1682851;85;21088;-61
2021/03/05 00:38:21;;;;;;;19.80;8.78;;;;;;;4.76;58.28;99734.85;1683839;85;21110;-61
2021/03/05 00:40:48;;;;;;;20.32;7.97;;;;;;;4.73;57.94;99736.56;1683772;84;21790;-61
2021/03/05 00:43:16;;;;;;;19.10;8.25;;;;;;;4.66;57.97;99738.30;1683849;85;21165;-61
2021/03/05 00:45:43;;;;;;;17.90;7.83;;;;;;;4.58;57.87;99735.61;1683802;84;21180;-61
2021/03/05 00:48:12;;;;;;;20.75;8.58;;;;;;;4.47;58.17;99744.94;1683791;85;21160;-60
2021/03/05 00:50:40;;;;;;;19.45;7.90;;;;;;;4.43;58.32;99736.82;1683780;84;21061;-61
2021/03/05 00:53:08;;;;;;;20.68;8.18;;;;;;;4.42;58.51;99739.20;1683883;85;21100;-61
2021/03/05 00:55:36;;;;;;;20.85;8.10;;;;;;;4.41;58.53;99735.64;1683718;83;21329;-61
2021/03/05 00:58:05;;;;;;;20.27;8.05;;;;;;;4.39;58.76;99732.77;1683602;85;21905;-60
2021/03/05 01:00:32;;;;;;;18.90;8.08;;;;;;;4.40;58.85;99738.52;1683749;84;21431;-60
2021/03/05 01:03:00;;;;;;;19.45;7.80;;;;;;;4.39;58.77;99733.61;1683687;83;21391;-60
2021/03/05 01:05:29;;;;;;;18.07;7.50;;;;;;;4.37;58.97;99734.80;1684233;84;21323;-59
2021/03/05 01:07:59;;;;;;;21.68;7.78;;;;;;;4.38;59.02;99728.36;1688643;83;21085;-61
2021/03/05 01:10:30;;;;;;;16.32;7.95;;;;;;;4.34;58.78;99722.95;1688165;85;21333;-60
2021/03/05 01:12:57;;;;;;;18.35;7.47;;;;;;;4.31;58.98;99717.88;1688596;83;21072;-61
2021/03/05 01:15:24;;;;;;;15.53;7.05;;;;;;;4.31;59.12;99717.88;1688628;85;21395;-61
2021/03/05 01:17:52;;;;;;;16.67;7.20;;;;;;;4.34;59.02;99729.22;1688594;85;21281;-61
2021/03/05 01:20:23;;;;;;;19.55;6.78;;;;;;;4.31;58.89;99726.86;1688625;85;21074;-60
2021/03/05 01:22:50;;;;;;;17.48;7.60;;;;;;;4.26;58.85;99722.98;1688602;85;21160;-62
2021/03/05 01:25:23;;;;;;;20.27;7.37;;;;;;;4.22;59.07;99727.05;1688669;84;21176;-60
2021/03/05 01:27:52;;;;;;;20.92;7.58;;;;;;;4.23;59.13;99729.59;1688567;85;21068;-60
2021/03/05 01:30:20;;;;;;;15.18;7.05;;;;;;;4.23;59.15;99735.52;1688801;85;21101;-59
2021/03/05 01:32:48;;;;;;;17.90;7.53;;;;;;;4.23;59.13;99735.52;1688806;85;21155;-62
2021/03/05 01:35:25;;;;;;;19.75;7.85;;;;;;;4.17;59.17;99730.28;1688732;85;21271;-60
2021/03/05 01:37:52;;;;;;;13.90;5.47;;;;;;;4.16;59.37;99734.52;1688905;83;21088;-62
2021/03/05 01:40:34;;;;;;;18.57;7.20;;;;;;;4.17;59.49;99736.22;1688782;85;21311;-61
2021/03/05 01:43:02;;;;;;;18.15;7.05;;;;;;;4.17;59.59;99743.84;1688472;83;21322;-61
2021/03/05 01:45:30;;;;;;;18.27;7.42;;;;;;;4.16;59.60;99742.66;1688786;85;21328;-61
2021/03/05 01:48:05;;;;;;;18.15;7.17;;;;;;;4.12;59.80;99744.36;1688817;83;21268;-61
2021/03/05 01:50:37;;;;;;;19.87;8.05;;;;;;;4.14;59.82;99750.96;1688798;83;21152;-60
2021/03/05 01:53:06;;;;;;;20.97;7.17;;;;;;;4.14;59.79;99755.88;1688705;85;21309;-61
2021/03/05 01:55:35;;;;;;;19.05;7.45;;;;;;;4.13;59.90;99754.69;1688757;85;21085;-61
2021/03/05 01:58:03;;;;;;;15.65;7.12;;;;;;;4.12;60.09;99755.71;1688697;85;21350;-60
2021/03/05 02:00:40;;;;;;;20.23;8.53;;;;;;;4.12;60.11;99755.71;1688723;84;21305;-61
2021/03/05 02:03:08;;;;;;;17.73;7.72;;;;;;;4.11;60.21;99763.50;1688696;85;21129;-60
2021/03/05 02:05:38;;;;;;;20.32;7.85;;;;;;;4.11;60.19;99760.80;1688587;83;21109;-60
2021/03/05 02:08:09;;;;;;;19.70;7.78;;;;;;;4.07;60.21;99754.88;1683743;85;21337;-60
2021/03/05 02:10:36;;;;;;;21.42;8.48;;;;;;;4.04;60.29;99759.28;1683283;85;21088;-60
2021/03/05 02:13:04;;;;;;;20.25;8.03;;;;;;;4.03;60.50;99761.66;1683765;85;21049;-60
2021/03/05 02:15:33;;;;;;;23.55;8.03;;;;;;;4.03;60.59;99760.30;1683935;85;21225;-60
2021/03/05 02:18:30;;;;;;;18.75;7.50;;;;;;;4.03;60.66;99761.66;1683815;84;21336;-60
2021/03/05 02:21:35;;;;;;;19.55;8.10;;;;;;;4.00;60.70;99757.93;1683916;85;21164;-60
2021/03/05 02:24:35;;;;;;;20.45;8.05;;;;;;;3.96;60.81;99767.42;1683826;83;21098;-59
2021/03/05 02:27:42;;;;;;;19.87;7.65;;;;;;;3.85;61.04;99773.16;1679458;85;21424;-60
2021/03/05 02:30:36;;;;;;;16.57;7.40;;;;;;;3.83;61.34;99783.32;1672214;85;21295;-60
2021/03/05 02:33:35;;;;;;;20.82;7.65;;;;;;;3.79;61.52;99775.19;1656399;85;21074;-60
2021/03/05 02:36:06;;;;;;;18.30;7.40;;;;;;;3.80;61.75;99777.73;1672015;85;21330;-60
2021/03/05 02:38:34;;;;;;;21.02;9.15;;;;;;;3.83;61.83;99780.10;1672185;85;21292;-60
2021/03/05 02:41:03;;;;;;;20.43;7.90;;;;;;;3.85;61.79;99783.15;1654552;85;21369;-60
2021/03/05 02:43:30;;;;;;;21.73;8.48;;;;;;;3.83;61.72;99786.03;1654459;85;21376;-60
2021/03/05 02:46:05;;;;;;;25.10;8.98;;;;;;;3.79;61.86;99791.45;1672010;85;21059;-61
2021/03/05 02:48:38;;;;;;;20.62;7.72;;;;;;;3.77;61.90;99789.41;1672079;85;21086;-60
2021/03/05 02:51:06;;;;;;;23.62;9.20;;;;;;;3.70;62.05;99798.73;1672048;85;21053;-60
2021/03/05 02:53:34;;;;;;;20.30;8.88;;;;;;;3.68;62.30;99795.84;1672033;85;21304;-60
2021/03/05 02:56:06;;;;;;;24.00;9.80;;;;;;;3.67;62.52;99803.63;1671943;85;21351;-60
2021/03/05 02:58:34;;;;;;;25.25;10.20;;;;;;;3.67;62.67;99807.70;1654679;85;21038;-60
2021/03/05 03:01:01;;;;;;;24.25;9.60;;;;;;;3.69;62.76;99801.09;1671671;85;21090;-61
2021/03/05 03:03:29;;;;;;;23.12;8.78;;;;;;;3.72;62.80;99799.41;1672095;85;21411;-61
2021/03/05 03:05:56;;;;;;;23.40;8.83;;;;;;;3.71;62.83;99802.28;1672424;83;21074;-61
2021/03/05 03:08:23;;;;;;;28.12;10.08;;;;;;;3.73;63.03;99805.67;1691541;84;21126;-60
2021/03/05 03:10:51;;;;;;;25.95;9.88;;;;;;;3.72;63.19;99810.75;1691519;84;21299;-60
2021/03/05 03:13:19;;;;;;;26.55;9.98;;;;;;;3.72;63.33;99810.75;1691708;84;21131;-61
2021/03/05 03:15:46;;;;;;;24.47;10.08;;;;;;;3.66;63.53;99812.78;1691456;84;21072;-60
2021/03/05 03:18:14;;;;;;;29.42;10.48;;;;;;;3.67;63.71;99820.73;1653152;83;21313;-61
2021/03/05 03:20:43;;;;;;;27.98;9.50;;;;;;;3.70;63.83;99815.48;1691494;84;21068;-61
2021/03/05 03:23:10;;;;;;;30.45;10.88;;;;;;;3.77;63.90;99819.22;1691565;84;21095;-60
2021/03/05 03:25:38;;;;;;;25.92;10.25;;;;;;;3.80;63.82;99822.95;1691581;84;21275;-61
2021/03/05 03:28:06;;;;;;;26.97;10.05;;;;;;;3.81;63.88;99826.00;1691501;84;21048;-60
2021/03/05 03:30:33;;;;;;;25.88;10.88;;;;;;;3.79;64.02;99833.45;1691547;84;21179;-60
2021/03/05 03:33:02;;;;;;;27.25;11.08;;;;;;;3.80;64.16;99835.14;1691360;84;21051;-60
2021/03/05 03:35:30;;;;;;;30.30;11.70;;;;;;;3.79;64.29;99830.23;1691454;84;21107;-61
2021/03/05 03:37:59;;;;;;;25.65;10.63;;;;;;;3.77;64.41;99834.12;1689701;84;21075;-61
2021/03/05 03:40:27;;;;;;;31.12;11.12;;;;;;;3.74;64.52;99839.88;1691589;83;21064;-60
2021/03/05 03:42:55;;;;;;;29.82;10.28;;;;;;;3.67;64.63;99836.14;1691511;84;21087;-62
2021/03/05 03:45:23;;;;;;;32.75;11.50;;;;;;;3.57;64.84;99840.86;1691436;83;21183;-61
2021/03/05 03:47:51;;;;;;;37.48;12.18;;;;;;;3.52;65.21;99843.23;1691468;84;21096;-60
2021/03/05 03:50:27;;;;;;;31.80;11.53;;;;;;;3.60;65.61;99841.89;1691479;84;21203;-61
2021/03/05 03:52:56;;;;;;;33.78;12.70;;;;;;;3.67;65.85;99845.12;1691515;83;21295;-61
2021/03/05 03:55:23;;;;;;;30.85;11.40;;;;;;;3.64;66.00;99842.73;1691438;83;21366;-61
2021/03/05 03:57:53;;;;;;;30.32;11.28;;;;;;;3.59;66.51;99844.25;1691540;84;21092;-60
2021/03/05 04:00:21;;;;;;;28.17;12.18;;;;;;;3.59;66.88;99837.48;1691356;84;21224;-60
2021/03/05 04:02:53;;;;;;;36.98;12.55;;;;;;;3.58;67.18;99840.70;1691551;83;21171;-60
2021/03/05 04:05:26;;;;;;;30.90;11.38;;;;;;;3.61;67.44;99847.64;1691442;84;21103;-60
2021/03/05 04:07:57;;;;;;;28.35;11.40;;;;;;;3.67;67.53;99849.69;1689662;83;21326;-60
2021/03/05 04:10:24;;;;;;;32.60;11.83;;;;;;;3.68;67.50;99852.23;1688703;84;21816;-60
2021/03/05 04:12:52;;;;;;;27.13;11.28;;;;;;;3.66;67.47;99856.97;1688713;85;21284;-60
2021/03/05 04:15:20;;;;;;;29.32;12.30;;;;;;;3.61;67.57;99856.62;1670914;84;21078;-60
2021/03/05 04:17:47;;;;;;;28.62;11.60;;;;;;;3.60;67.67;99864.91;1688738;83;21072;-60
2021/03/05 04:20:17;;;;;;;28.45;11.45;;;;;;;3.59;67.89;99860.00;1688696;83;21311;-60
2021/03/05 04:22:44;;;;;;;29.18;10.72;;;;;;;3.56;68.19;99863.04;1688928;84;21307;-60
2021/03/05 04:25:15;;;;;;;40.48;12.78;;;;;;;3.58;68.24;99857.45;1648699;85;21041;-60
2021/03/05 04:27:44;;;;;;;36.38;13.70;;;;;;;3.57;68.31;99857.97;1688668;84;21060;-60
2021/03/05 04:30:13;;;;;;;35.58;12.95;;;;;;;3.59;68.48;99848.31;1688813;85;21047;-60
2021/03/05 04:32:41;;;;;;;34.27;13.70;;;;;;;3.59;68.54;99851.03;1688757;84;21362;-60
2021/03/05 04:35:10;;;;;;;35.78;13.93;;;;;;;3.54;68.67;99850.67;1688722;83;21325;-60
2021/03/05 04:37:37;;;;;;;35.88;13.93;;;;;;;3.57;68.81;99859.83;1688756;83;21092;-60
2021/03/05 04:40:07;;;;;;;35.70;14.15;;;;;;;3.58;68.81;99862.88;1688675;85;21112;-62
2021/03/05 04:42:35;;;;;;;33.20;12.93;;;;;;;3.57;68.63;99867.95;1688852;85;21853;-60
2021/03/05 04:45:03;;;;;;;38.35;13.65;;;;;;;3.59;68.63;99862.71;1688668;85;21068;-60
2021/03/05 04:47:31;;;;;;;36.90;13.85;;;;;;;3.58;68.30;99865.59;1688790;85;21830;-60
2021/03/05 04:49:59;;;;;;;36.20;13.88;;;;;;;3.52;68.22;99866.25;1688813;85;21299;-59
2021/03/05 04:52:26;;;;;;;33.98;12.93;;;;;;;3.50;68.35;99867.77;1688700;85;21069;-60
2021/03/05 04:54:54;;;;;;;35.75;13.22;;;;;;;3.53;68.51;99868.79;1688626;83;21092;-60
2021/03/05 04:57:21;;;;;;;30.25;11.08;;;;;;;3.57;68.56;99865.24;1688656;83;21347;-61
2021/03/05 04:59:49;;;;;;;35.10;12.23;;;;;;;3.59;68.68;99866.77;1688694;85;21310;-60
2021/03/05 05:02:16;;;;;;;32.08;12.85;;;;;;;3.63;68.69;99870.84;1688643;85;21914;-61
2021/03/05 05:04:43;;;;;;;32.73;10.90;;;;;;;3.64;68.44;99874.40;1688609;83;21128;-60
2021/03/05 05:07:11;;;;;;;27.82;9.83;;;;;;;3.61;68.46;99874.73;1689497;83;21367;-62
2021/03/05 05:09:39;;;;;;;28.50;11.40;;;;;;;3.59;68.52;99879.47;1691322;84;21076;-62
2021/03/05 05:12:08;;;;;;;30.43;10.90;;;;;;;3.56;68.79;99888.77;1691292;84;21305;-61
2021/03/05 05:14:36;;;;;;;24.92;10.23;;;;;;;3.53;68.99;99889.61;1691506;84;21071;-60
2021/03/05 05:17:04;;;;;;;30.37;11.73;;;;;;;3.53;69.23;99891.81;1691281;84;21316;-61
2021/03/05 05:19:32;;;;;;;28.05;11.53;;;;;;;3.56;69.52;99890.63;1691389;84;21259;-61
2021/03/05 05:21:59;;;;;;;28.52;10.95;;;;;;;3.58;69.30;99887.25;1691379;84;21041;-60
2021/03/05 05:24:28;;;;;;;29.57;10.45;;;;;;;3.55;69.28;99888.94;1691421;83;21397;-60
2021/03/05 05:26:56;;;;;;;26.82;10.45;;;;;;;3.58;69.22;99888.61;1691442;83;21164;-61
2021/03/05 05:29:23;;;;;;;29.12;10.88;;;;;;;3.58;69.00;99889.96;1691376;83;21143;-60
2021/03/05 05:31:51;;;;;;;28.25;11.40;;;;;;;3.56;69.00;99891.48;1691428;83;21322;-61
2021/03/05 05:34:19;;;;;;;26.82;10.38;;;;;;;3.58;69.03;99894.87;1691336;84;21279;-61
2021/03/05 05:36:47;;;;;;;22.93;8.85;;;;;;;3.61;68.96;99897.75;1691513;84;21183;-60
2021/03/05 05:39:15;;;;;;;24.87;9.45;;;;;;;3.64;68.70;99905.55;1691475;83;21418;-61
2021/03/05 05:41:42;;;;;;;25.32;9.23;;;;;;;3.65;68.52;99901.83;1691359;83;21044;-61
2021/03/05 05:44:10;;;;;;;25.15;8.40;;;;;;;3.66;68.42;99907.08;1691333;84;21069;-60
2021/03/05 05:46:39;;;;;;;19.07;7.87;;;;;;;3.69;68.24;99908.61;1691353;83;21071;-61
2021/03/05 05:49:07;;;;;;;19.05;8.00;;;;;;;3.70;68.24;99907.59;1691237;83;21109;-61
2021/03/05 05:51:35;;;;;;;27.22;8.73;;;;;;;3.70;68.28;99907.09;1691346;84;21272;-61
2021/03/05 05:54:09;;;;;;;21.20;8.40;;;;;;;3.71;68.41;99911.50;1691301;83;21060;-61
2021/03/05 05:56:42;;;;;;;23.42;9.13;;;;;;;3.73;68.47;99909.98;1691315;84;21063;-61
2021/03/05 05:59:09;;;;;;;24.90;9.83;;;;;;;3.75;68.56;99916.08;1675186;84;21376;-61
2021/03/05 06:01:37;;;;;;;27.48;9.80;;;;;;;3.79;68.54;99920.15;1691306;84;21832;-61
2021/03/05 06:04:05;;;;;;;27.65;9.30;;;;;;;3.86;68.46;99917.63;1691205;83;21127;-63
2021/03/05 06:06:32;;;;;;;27.98;10.55;;;;;;;3.89;68.17;99923.56;1691297;83;21413;-62
2021/03/05 06:09:01;;;;;;;24.30;10.03;;;;;;;3.88;68.06;99920.50;1691180;84;21179;-60
2021/03/05 06:11:39;;;;;;;22.02;8.63;;;;;;;3.89;68.02;99927.63;1691380;84;21073;-60
2021/03/05 06:14:11;;;;;;;22.77;8.85;;;;;;;3.93;67.85;99928.17;1691348;84;21119;-62
2021/03/05 06:16:58;;;;;;;21.50;8.58;;;;;;;3.92;67.49;99934.60;1691119;84;21060;-62
2021/03/05 06:19:28;;;;;;;19.75;8.20;;;;;;;3.89;67.23;99931.69;1691433;84;21750;-61
2021/03/05 06:21:57;;;;;;;19.45;6.50;;;;;;;3.89;66.94;99934.40;1691485;84;21060;-60
2021/03/05 06:24:26;;;;;;;19.60;7.12;;;;;;;3.85;66.64;99938.45;1691404;84;21350;-61
2021/03/05 06:27:00;;;;;;;21.65;7.75;;;;;;;3.82;66.39;99949.63;1675487;84;21040;-63
2021/03/05 06:29:45;;;;;;;21.68;8.25;;;;;;;3.78;66.29;99946.40;1691520;84;21255;-61
2021/03/05 06:32:16;;;;;;;23.30;9.45;;;;;;;3.78;66.49;99949.61;1691384;84;21828;-61
2021/03/05 06:34:54;;;;;;;20.12;8.35;;;;;;;3.82;66.71;99948.27;1691182;84;21413;-61
2021/03/05 06:37:24;;;;;;;20.02;8.53;;;;;;;3.90;66.68;99950.15;1691261;84;21083;-63
2021/03/05 06:39:59;;;;;;;37.40;13.72;;;;;;;3.96;66.46;99953.08;1691299;84;21167;-62
2021/03/05 06:42:28;;;;;;;24.20;9.75;;;;;;;4.01;66.38;99945.80;1691308;84;21087;-60
2021/03/05 06:44:55;;;;;;;22.42;8.95;;;;;;;4.06;66.11;99952.42;1691475;84;21334;-60
2021/03/05 06:47:27;;;;;;;23.02;8.68;;;;;;;4.09;65.82;99950.73;1691327;84;21394;-61
2021/03/05 06:49:52;;;;;;;16.55;7.62;;;;;;;4.08;65.96;99942.25;1691117;84;21061;-61
2021/03/05 06:52:20;;;;;;;21.15;7.87;;;;;;;4.13;65.96;99952.59;1691379;84;21313;-62
2021/03/05 06:54:49;;;;;;;24.52;8.70;;;;;;;4.15;65.75;99951.92;1691307;84;21108;-63
2021/03/05 06:57:22;;;;;;;20.05;8.48;;;;;;;4.16;65.63;99948.19;1691316;84;21251;-61
2021/03/05 06:59:50;;;;;;;23.83;8.75;;;;;;;4.19;65.53;99953.79;1691596;83;21073;-61
2021/03/05 07:02:17;;;;;;;27.27;9.23;;;;;;;4.22;65.50;99954.81;1691287;83;21265;-61
2021/03/05 07:04:51;;;;;;;21.70;8.63;;;;;;;4.23;65.13;99961.42;1691365;83;21131;-61
2021/03/05 07:07:20;;;;;;;21.15;7.67;;;;;;;4.21;64.78;99958.03;1615128;88;21332;-62
2021/03/05 07:09:50;;;;;;;20.43;7.72;;;;;;;4.19;64.41;99956.50;1631173;88;21209;-61
2021/03/05 07:12:24;;;;;;;15.95;7.12;;;;;;;4.24;64.31;99959.56;1645311;85;21460;-61
2021/03/05 07:15:09;;;;;;;20.02;8.25;;;;;;;4.28;64.05;99959.56;1657920;86;21072;-61
2021/03/05 07:17:37;;;;;;;21.57;7.60;;;;;;;4.27;64.09;99956.00;1645287;87;21073;-63
2021/03/05 07:20:07;;;;;;;15.38;7.17;;;;;;;4.32;64.04;99950.92;1651303;85;21049;-63
2021/03/05 07:22:35;;;;;;;22.75;9.30;;;;;;;4.32;63.93;99954.98;1653034;86;21383;-62
2021/03/05 07:25:03;;;;;;;19.98;7.65;;;;;;;4.35;63.97;99960.58;1628240;86;21205;-62
2021/03/05 07:27:37;;;;;;;19.42;7.72;;;;;;;4.40;64.03;99966.34;1628442;86;21318;-61
2021/03/05 07:30:11;;;;;;;20.60;8.30;;;;;;;4.46;64.00;99964.31;1651794;86;21061;-61
2021/03/05 07:32:41;;;;;;;21.45;8.50;;;;;;;4.45;63.85;99960.75;1652708;85;21089;-61
2021/03/05 07:35:35;;;;;;;16.30;6.97;;;;;;;4.45;63.94;99961.27;1652946;86;21349;-61
2021/03/05 07:38:05;;;;;;;21.80;9.43;;;;;;;4.48;63.79;99955.50;1652647;85;21844;-63
2021/03/05 07:40:33;;;;;;;22.32;8.80;;;;;;;4.50;63.97;99952.62;1653051;86;21188;-62
2021/03/05 07:43:00;;;;;;;19.23;8.20;;;;;;;4.53;63.74;99961.27;1652992;85;21436;-62
2021/03/05 07:45:28;;;;;;;27.25;8.85;;;;;;;4.54;63.70;99952.11;1652966;86;21277;-61
2021/03/05 07:47:56;;;;;;;28.85;8.43;;;;;;;4.58;63.74;99958.08;1653112;86;21126;-61
2021/03/05 07:50:25;;;;;;;18.48;7.70;;;;;;;4.64;63.80;99960.11;1652909;86;21292;-61
2021/03/05 07:52:59;;;;;;;20.08;7.42;;;;;;;4.69;63.45;99962.64;1653174;86;21054;-61
2021/03/05 07:55:42;;;;;;;23.60;8.05;;;;;;;4.70;63.09;99963.49;1652942;85;21185;-61
2021/03/05 07:58:10;;;;;;;23.20;8.58;;;;;;;4.72;63.19;99960.09;1652971;86;21095;-61
2021/03/05 08:00:48;;;;;;;20.85;8.03;;;;;;;4.73;62.91;99973.50;1652949;85;21336;-62
2021/03/05 08:03:18;;;;;;;26.23;7.87;;;;;;;4.75;62.67;99966.03;1653008;85;21144;-62
2021/03/05 08:05:48;;;;;;;19.05;7.67;;;;;;;4.78;62.58;99963.48;1657507;85;21107;-62
2021/03/05 08:08:20;;;;;;;18.45;8.28;;;;;;;4.83;62.61;99974.67;1652521;86;21136;-61
2021/03/05 08:10:57;;;;;;;22.45;7.87;;;;;;;4.93;62.31;99967.70;1652917;86;21211;-61
2021/03/05 08:16:33;;;;;;;21.65;7.58;;;;;;;5.03;61.67;99965.14;1652817;86;21351;-62
2021/03/05 08:19:14;;;;;;;16.95;7.28;;;;;;;5.06;61.28;99968.02;1653038;86;21077;-61
2021/03/05 08:21:57;;;;;;;21.12;7.35;;;;;;;5.07;60.69;99967.00;1652916;86;21343;-62
2021/03/05 08:24:28;;;;;;;16.55;7.30;;;;;;;5.04;60.51;99972.27;1652836;86;21425;-61
2021/03/05 08:27:11;;;;;;;19.77;6.72;;;;;;;5.02;60.24;99977.02;1653489;85;21085;-61
2021/03/05 08:29:56;;;;;;;17.02;7.35;;;;;;;4.98;60.06;99976.19;1654931;85;21345;-62
2021/03/05 08:32:38;;;;;;;22.10;6.30;;;;;;;4.97;60.05;99974.48;1656092;85;21321;-61
2021/03/05 08:35:12;;;;;;;18.15;6.80;;;;;;;5.03;60.07;99977.36;1664781;86;21142;-60
2021/03/05 08:37:49;;;;;;;15.88;6.67;;;;;;;5.12;60.01;99982.77;1654887;86;21456;-63
2021/03/05 08:40:25;;;;;;;17.60;6.80;;;;;;;5.17;59.70;99969.52;1653255;86;21112;-61
2021/03/05 08:43:00;;;;;;;18.27;6.92;;;;;;;5.17;59.61;99970.37;1655106;86;21285;-61
2021/03/05 08:45:29;;;;;;;16.42;6.25;;;;;;;5.25;59.39;99972.25;1650450;86;21158;-60
2021/03/05 08:48:02;;;;;;;14.13;6.42;;;;;;;5.32;58.92;99965.09;1654952;86;21098;-61
2021/03/05 08:50:34;;;;;;;15.20;5.95;;;;;;;5.36;58.67;99963.73;1655785;86;21179;-61
2021/03/05 08:53:06;;;;;;;15.63;6.25;;;;;;;5.36;58.78;99968.65;1652715;86;21333;-60
2021/03/05 08:55:36;;;;;;;20.12;7.80;;;;;;;5.36;58.77;99970.01;1655898;86;21401;-62
2021/03/05 08:58:03;;;;;;;15.20;6.65;;;;;;;5.42;58.80;99980.69;1682051;85;21829;-62
2021/03/05 09:00:33;;;;;;;19.42;7.05;;;;;;;5.48;58.46;99983.22;1704932;83;21815;-62
2021/03/05 09:03:07;;;;;;;14.15;5.92;;;;;;;5.53;58.15;99989.81;1694909;83;21230;-64
2021/03/05 09:05:38;;;;;;;14.68;6.53;;;;;;;5.59;57.95;99985.55;1693966;84;21174;-63
2021/03/05 09:08:06;;;;;;;15.98;6.03;;;;;;;5.66;57.61;99986.03;1696254;83;21293;-65
2021/03/05 09:10:55;;;;;;;15.53;6.65;;;;;;;5.74;57.08;99985.14;1689520;83;21094;-65
2021/03/05 09:13:31;;;;;;;14.60;5.87;;;;;;;5.74;56.84;99982.42;1705850;83;21259;-64
2021/03/05 09:16:00;;;;;;;13.05;5.65;;;;;;;5.78;56.89;99981.05;1699409;83;21245;-65
2021/03/05 09:18:32;;;;;;;14.65;5.80;;;;;;;5.86;56.55;99989.20;1659831;86;21088;-61
2021/03/05 09:21:03;;;;;;;16.32;6.50;;;;;;;5.95;56.35;99993.59;1659661;86;21263;-63
2021/03/05 09:23:40;;;;;;;12.23;5.92;;;;;;;6.02;55.69;99985.06;1659865;85;21812;-65
2021/03/05 09:26:15;;;;;;;17.55;5.10;;;;;;;6.09;55.14;99983.84;1660019;85;21309;-64
2021/03/05 09:28:46;;;;;;;15.13;6.72;;;;;;;6.19;54.84;99990.41;1671807;84;21776;-64
2021/03/05 09:31:20;;;;;;;18.73;6.53;;;;;;;6.26;54.94;99990.02;1658227;86;21342;-62
2021/03/05 09:33:47;;;;;;;13.55;6.30;;;;;;;6.36;55.14;99998.28;1659060;85;21400;-62
2021/03/05 09:36:17;;;;;;;19.15;6.75;;;;;;;6.47;54.79;99989.36;1659841;86;21345;-65
2021/03/05 09:38:54;;;;;;;14.60;6.40;;;;;;;6.55;54.60;99995.63;1649216;86;21103;-67
2021/03/05 09:41:25;;;;;;;11.80;4.80;;;;;;;6.67;54.12;100002.84;1641254;87;21329;-65
2021/03/05 09:44:04;;;;;;;14.25;5.35;;;;;;;6.73;52.67;100007.56;1652833;86;21360;-62
2021/03/05 09:46:33;;;;;;;11.57;5.37;;;;;;;6.77;52.42;100017.06;1659984;85;21837;-64
2021/03/05 09:49:24;;;;;;;12.82;4.72;;;;;;;6.74;51.65;100014.70;1670946;85;21078;-63
2021/03/05 09:51:52;;;;;;;12.53;4.90;;;;;;;6.58;50.97;100015.67;1671386;85;21385;-64
2021/03/05 09:54:42;;;;;;;11.88;4.08;;;;;;;6.49;51.26;100009.92;1670068;85;21097;-65
2021/03/05 09:57:11;;;;;;;8.08;4.17;;;;;;;6.47;50.73;100017.42;1641296;87;21308;-64
2021/03/05 09:59:49;;;;;;;12.85;3.72;;;;;;;6.48;50.34;100013.67;1632191;86;21086;-66
2021/03/05 10:02:21;;;;;;;6.20;3.15;;;;;;;6.52;50.48;100015.55;1645195;86;21813;-62
2021/03/05 10:04:50;;;;;;;10.63;4.37;;;;;;;6.56;50.10;100023.17;1638428;87;21296;-66
2021/03/05 10:07:18;;;;;;;11.10;4.20;;;;;;;6.60;50.49;100031.31;1643454;86;21095;-68
2021/03/05 10:09:46;;;;;;;12.63;4.87;;;;;;;6.65;50.01;100030.25;1668544;86;21961;-64
2021/03/05 10:12:13;;;;;;;10.53;5.12;;;;;;;6.60;49.99;100030.47;1668631;86;21326;-65
2021/03/05 10:14:42;;;;;;;13.85;4.90;;;;;;;6.53;50.39;100023.53;1641913;86;21157;-64
2021/03/05 10:17:14;;;;;;;12.73;5.65;;;;;;;6.55;50.57;100028.80;1658130;85;21399;-69
2021/03/05 10:19:43;;;;;;;13.22;6.00;;;;;;;6.59;50.44;100024.69;1659993;86;21360;-65
2021/03/05 10:22:13;;;;;;;12.00;4.92;;;;;;;6.59;50.13;100029.62;1659896;86;21132;-65
2021/03/05 10:24:40;;;;;;;10.10;4.67;;;;;;;6.55;50.48;100021.99;1659856;86;21281;-70
2021/03/05 10:29:49;;;;;;;9.68;4.50;;;;;;;6.70;50.36;100038.39;1668637;85;21125;-68
2021/03/05 10:32:24;;;;;;;8.88;4.50;;;;;;;6.78;49.99;100031.52;1668023;85;21085;-74
2021/03/05 10:34:56;;;;;;;9.43;4.22;;;;;;;6.84;50.01;100029.42;1667742;85;21744;-73
2021/03/05 10:37:25;;;;;;;10.43;4.22;;;;;;;6.87;49.51;100035.35;1669474;84;21042;-70
2021/03/05 10:39:53;;;;;;;8.68;4.08;;;;;;;6.86;49.45;100030.94;1668841;84;21789;-71
2021/03/05 10:42:22;;;;;;;10.53;4.30;;;;;;;6.87;49.57;100031.78;1668355;84;21737;-77
2021/03/05 10:44:50;;;;;;;13.25;5.08;;;;;;;6.88;49.02;100026.67;1672483;84;21090;-70
2021/03/05 10:47:19;;;;;;;13.35;4.92;;;;;;;6.82;49.29;100027.40;1670303;86;21820;-62
2021/03/05 10:49:47;;;;;;;12.98;5.03;;;;;;;6.85;49.49;100033.84;1668872;86;21214;-64
2021/03/05 10:52:17;;;;;;;17.62;6.78;;;;;;;6.84;49.45;100030.27;1668370;86;21337;-62
2021/03/05 10:54:46;;;;;;;24.43;6.45;;;;;;;6.81;50.03;100031.16;1668306;86;21098;-62
2021/03/05 10:57:17;;;;;;;16.75;6.12;;;;;;;6.69;50.17;100036.18;1668853;86;21316;-62
2021/03/05 10:59:47;;;;;;;17.02;6.60;;;;;;;6.67;50.77;100032.80;1668448;86;21133;-65
2021/03/05 11:02:16;;;;;;;14.95;5.85;;;;;;;6.62;50.94;100037.42;1664669;86;21339;-64
2021/03/05 11:04:43;;;;;;;14.00;6.55;;;;;;;6.55;50.35;100041.05;1641560;86;21372;-63
2021/03/05 11:07:11;;;;;;;16.87;6.60;;;;;;;6.50;50.66;100042.07;1641379;86;21067;-62
2021/03/05 11:09:39;;;;;;;13.22;5.55;;;;;;;6.51;51.04;100041.92;1648267;86;21362;-61
2021/03/05 11:12:09;;;;;;;12.63;6.17;;;;;;;6.57;51.13;100037.63;1659739;85;21382;-63
2021/03/05 11:14:36;;;;;;;14.70;6.35;;;;;;;6.56;51.03;100032.70;1658659;86;21104;-61
2021/03/05 11:17:04;;;;;;;13.65;6.25;;;;;;;6.60;51.16;100037.27;1648569;85;21134;-62
2021/03/05 11:19:32;;;;;;;12.40;5.50;;;;;;;6.57;51.27;100038.98;1649928;86;21289;-62
2021/03/05 11:21:59;;;;;;;13.40;6.05;;;;;;;6.55;51.41;100039.69;1660091;86;21798;-63
2021/03/05 11:24:27;;;;;;;14.43;5.50;;;;;;;6.40;51.02;100042.81;1659929;86;21319;-62
2021/03/05 11:26:54;;;;;;;20.90;9.20;;;;;;;6.28;51.43;100039.66;1659979;86;21316;-61
2021/03/05 11:29:22;;;;;;;13.75;6.20;;;;;;;6.30;51.68;100045.25;1659868;86;21786;-60
2021/03/05 11:31:50;;;;;;;14.18;5.62;;;;;;;6.25;52.17;100053.62;1652573;86;21333;-60
2021/03/05 11:34:18;;;;;;;14.03;5.15;;;;;;;6.16;51.88;100048.73;1631197;86;21465;-61
2021/03/05 11:36:45;;;;;;;12.98;5.62;;;;;;;6.09;51.53;100053.19;1616748;88;21293;-62
2021/03/05 11:39:12;;;;;;;12.28;4.42;;;;;;;6.07;51.99;100051.67;1646712;85;21317;-62
2021/03/05 11:41:40;;;;;;;9.83;4.03;;;;;;;6.10;51.68;100054.03;1643009;87;21939;-62
2021/03/05 11:44:09;;;;;;;8.10;3.47;;;;;;;6.13;51.54;100067.28;1641917;87;21059;-62
2021/03/05 11:46:39;;;;;;;9.55;4.25;;;;;;;6.08;51.09;100059.66;1649789;85;21229;-60
2021/03/05 11:49:06;;;;;;;8.20;3.52;;;;;;;6.07;51.05;100057.11;1643219;87;21914;-62
2021/03/05 11:51:35;;;;;;;9.20;4.17;;;;;;;5.96;50.76;100059.20;1631675;88;21042;-61